Time;durP1;ratioP1;P1;durP2;ratioP2;P2;SDS_P1;SDS_P2;PMS_P1;PMS_P2;Temp;Humidity;BMP_temperature;BMP_pressure;BME280_temperature;BME280_humidity;BME280_pressure;Samples;Min_cycle;Max_cycle;Signal;HPM_P1;HPM_P2
2023/05/14 00:00:49;;;;;;;4.90;4.00;;;;;;;17.19;44.46;100384.94;109199;1255;61493;-78
2023/05/14 00:03:16;;;;;;;4.70;4.20;;;;;;;17.15;44.70;100386.73;109279;1255;61270;-79
2023/05/14 00:05:43;;;;;;;7.40;4.40;;;;;;;17.10;44.80;100390.25;109347;1255;74759;-79
2023/05/14 00:08:10;;;;;;;7.30;4.50;;;;;;;17.06;44.84;100394.02;109292;1260;68912;-79
2023/05/14 00:10:36;;;;;;;5.70;4.40;;;;;;;17.06;44.87;100393.28;109278;1257;71076;-78
2023/05/14 00:14:39;;;;;;;5.60;4.80;;;;;;;17.08;45.03;100392.91;106142;1291;599954;-78
2023/05/14 00:17:07;;;;;;;7.60;4.40;;;;;;;17.05;44.85;100396.40;108785;1259;56917;-78
2023/05/14 00:19:33;;;;;;;7.80;4.90;;;;;;;17.02;45.05;100402.63;108702;1259;61251;-78
2023/05/14 00:22:00;;;;;;;11.70;5.00;;;;;;;16.97;45.28;100400.64;108705;1257;73064;-78
2023/05/14 00:24:27;;;;;;;6.40;4.80;;;;;;;16.90;45.58;100401.41;109080;1258;69940;-80
2023/05/14 00:26:54;;;;;;;8.30;4.70;;;;;;;16.85;46.09;100402.14;109007;1257;73889;-79
2023/05/14 00:29:20;;;;;;;6.50;5.00;;;;;;;16.75;46.24;100401.89;109035;1253;239904;-77
2023/05/14 00:31:47;;;;;;;9.60;5.30;;;;;;;16.66;46.45;100402.52;109205;1254;59488;-78
2023/05/14 00:34:14;;;;;;;6.20;4.70;;;;;;;16.59;46.83;100403.86;108961;1254;70867;-77
2023/05/14 00:36:41;;;;;;;6.70;4.90;;;;;;;16.53;46.92;100405.70;109052;1254;71273;-75
2023/05/14 00:39:08;;;;;;;7.10;4.70;;;;;;;16.50;47.02;100403.18;107682;1256;74219;-78
2023/05/14 00:41:35;;;;;;;8.40;5.50;;;;;;;16.48;46.98;100406.27;106730;1256;59640;-79
2023/05/14 00:44:01;;;;;;;7.90;4.40;;;;;;;16.48;47.06;100409.67;106832;1254;60092;-77
2023/05/14 00:46:28;;;;;;;7.60;5.00;;;;;;;16.48;47.13;100412.61;105965;1254;75061;-78
2023/05/14 00:48:56;;;;;;;5.70;4.90;;;;;;;16.46;46.94;100414.98;105880;1261;70908;-78
2023/05/14 00:51:23;;;;;;;6.60;4.40;;;;;;;16.43;46.96;100415.29;105910;1256;75065;-77
2023/05/14 00:53:50;;;;;;;10.50;5.20;;;;;;;16.42;47.16;100413.09;106110;1257;62263;-75
2023/05/14 00:56:17;;;;;;;5.90;4.60;;;;;;;16.42;47.64;100408.89;106157;1254;60241;-78
2023/05/14 00:58:44;;;;;;;6.40;4.90;;;;;;;16.42;48.00;100409.59;106116;1254;74008;-79
2023/05/14 01:01:13;;;;;;;8.00;4.80;;;;;;;16.42;48.07;100407.45;105731;1254;71665;-77
2023/05/14 01:03:40;;;;;;;8.40;4.60;;;;;;;16.41;47.99;100406.61;106169;1259;73165;-78
2023/05/14 01:06:14;;;;;;;9.50;4.80;;;;;;;16.40;48.01;100404.27;107694;1254;62361;-78
2023/05/14 01:08:44;;;;;;;7.80;4.80;;;;;;;16.38;47.83;100402.56;108324;1253;61272;-79
2023/05/14 01:11:25;;;;;;;7.70;5.20;;;;;;;16.36;46.96;100400.73;107481;1257;74039;-79
2023/05/14 01:14:03;;;;;;;8.60;4.70;;;;;;;16.34;46.70;100401.12;106558;1255;72031;-81
2023/05/14 01:16:30;;;;;;;5.80;4.50;;;;;;;16.31;46.53;100402.36;106989;1257;73743;-79
2023/05/14 01:18:57;;;;;;;5.50;4.40;;;;;;;16.27;47.16;100407.14;106972;1254;61008;-80
2023/05/14 01:21:33;;;;;;;7.60;5.00;;;;;;;16.23;47.43;100408.91;106302;1254;62332;-79
2023/05/14 01:24:00;;;;;;;5.10;4.30;;;;;;;16.21;47.66;100414.92;106322;1257;74140;-79
2023/05/14 01:26:30;;;;;;;5.70;4.40;;;;;;;16.23;48.17;100413.70;105818;1260;71204;-79
2023/05/14 01:29:03;;;;;;;5.50;4.50;;;;;;;16.24;48.45;100418.41;105951;1258;75097;-79
2023/05/14 01:31:31;;;;;;;9.40;4.40;;;;;;;16.20;48.50;100418.36;105758;1261;61487;-79
2023/05/14 01:33:59;;;;;;;10.00;4.60;;;;;;;16.14;48.76;100417.47;105737;1253;60861;-77
2023/05/14 01:36:26;;;;;;;7.10;4.50;;;;;;;16.07;48.88;100418.30;105753;1259;73075;-78
2023/05/14 01:38:53;;;;;;;8.20;4.50;;;;;;;16.02;48.98;100420.21;105778;1254;72657;-81
2023/05/14 01:41:20;;;;;;;8.10;4.40;;;;;;;15.98;48.95;100418.22;105807;1257;74929;-78
2023/05/14 01:43:47;;;;;;;11.70;5.00;;;;;;;15.94;49.27;100421.15;105749;1254;62052;-78
2023/05/14 01:46:19;;;;;;;6.90;4.70;;;;;;;15.89;49.38;100416.52;105763;1260;64977;-78
2023/05/14 01:48:46;;;;;;;6.30;4.50;;;;;;;15.86;49.66;100412.64;105845;1260;74978;-79
2023/05/14 01:51:13;;;;;;;5.90;4.70;;;;;;;15.81;49.69;100407.57;106173;1254;72959;-79
2023/05/14 01:53:40;;;;;;;9.60;4.50;;;;;;;15.77;50.08;100403.34;106076;1253;74670;-78
2023/05/14 01:56:07;;;;;;;6.70;4.60;;;;;;;15.73;50.66;100398.81;108201;1254;61028;-78
2023/05/14 01:58:34;;;;;;;8.70;5.00;;;;;;;15.68;50.80;100395.38;107394;1260;61558;-77
2023/05/14 02:01:00;;;;;;;5.20;3.90;;;;;;;15.63;51.52;100389.67;107036;1261;73500;-75
2023/05/14 02:03:27;;;;;;;8.30;4.90;;;;;;;15.60;51.49;100387.52;106186;1254;72204;-80
2023/05/14 02:05:54;;;;;;;5.90;5.00;;;;;;;15.54;52.21;100385.89;106113;1254;72526;-77
2023/05/14 02:08:21;;;;;;;5.40;4.20;;;;;;;15.51;52.21;100375.88;105779;1256;59862;-78
2023/05/14 02:10:48;;;;;;;8.40;4.10;;;;;;;15.49;52.33;100373.67;106118;1253;62539;-78
2023/05/14 02:13:15;;;;;;;6.10;4.20;;;;;;;15.49;51.69;100370.48;106311;1253;75258;-77
2023/05/14 02:15:42;;;;;;;6.90;4.10;;;;;;;15.50;50.79;100366.59;105838;1253;72350;-79
2023/05/14 02:18:09;;;;;;;6.60;3.90;;;;;;;15.53;50.55;100366.80;105777;1253;74919;-78
2023/05/14 02:20:36;;;;;;;9.10;4.30;;;;;;;15.56;49.61;100368.73;105663;1254;60493;-80
2023/05/14 02:23:02;;;;;;;4.90;3.70;;;;;;;15.61;48.74;100369.45;105919;1260;60798;-79
2023/05/14 02:25:29;;;;;;;7.70;3.70;;;;;;;15.65;48.24;100371.36;105776;1254;75486;-79
2023/05/14 02:27:57;;;;;;;4.30;3.70;;;;;;;15.71;47.96;100374.98;105920;1254;72216;-79
2023/05/14 02:30:24;;;;;;;7.50;4.70;;;;;;;15.75;47.96;100373.09;105885;1253;74521;-77
2023/05/14 02:32:51;;;;;;;8.00;4.40;;;;;;;15.79;47.73;100376.02;105941;1258;61720;-77
2023/05/14 02:35:19;;;;;;;7.00;4.40;;;;;;;15.83;47.78;100370.34;105953;1253;62529;-78
2023/05/14 02:37:46;;;;;;;8.10;5.10;;;;;;;15.85;47.49;100379.02;105924;1254;74237;-80
2023/05/14 02:40:13;;;;;;;9.20;4.70;;;;;;;15.83;47.82;100377.14;105682;1254;70741;-76
2023/05/14 02:42:40;;;;;;;11.40;4.60;;;;;;;15.79;47.90;100380.43;105956;1256;71310;-77
2023/05/14 02:45:07;;;;;;;8.30;5.00;;;;;;;15.76;48.30;100379.17;105746;1254;60081;-77
2023/05/14 02:47:34;;;;;;;9.00;4.70;;;;;;;15.74;48.28;100381.60;105766;1255;62321;-77
2023/05/14 02:50:05;;;;;;;8.60;4.40;;;;;;;15.73;48.16;100380.84;105888;1256;72144;-77
2023/05/14 02:52:32;;;;;;;10.00;4.30;;;;;;;15.74;47.69;100380.69;105754;1253;70981;-78
2023/05/14 02:54:59;;;;;;;8.00;4.60;;;;;;;15.75;47.68;100380.55;105926;1258;74092;-78
2023/05/14 02:57:25;;;;;;;5.30;4.50;;;;;;;15.78;47.72;100381.70;106043;1254;61608;-78
2023/05/14 02:59:52;;;;;;;6.60;4.60;;;;;;;15.80;47.67;100383.95;106225;1258;60429;-78
2023/05/14 03:02:20;;;;;;;6.00;4.30;;;;;;;15.81;48.02;100383.09;105885;1254;73922;-77
2023/05/14 03:04:47;;;;;;;5.10;4.10;;;;;;;15.80;48.33;100384.27;105728;1260;69601;-77
2023/05/14 03:07:14;;;;;;;6.60;4.40;;;;;;;15.79;48.99;100384.59;105863;1254;74507;-76
2023/05/14 03:09:41;;;;;;;16.10;4.90;;;;;;;15.75;49.22;100385.20;105838;1254;62896;-78
2023/05/14 03:12:08;;;;;;;10.70;4.80;;;;;;;15.72;49.73;100386.43;105758;1253;62470;-77
2023/05/14 03:14:34;;;;;;;17.00;5.60;;;;;;;15.69;50.22;100386.48;105976;1253;74035;-77
2023/05/14 03:17:02;;;;;;;16.70;5.10;;;;;;;15.63;50.76;100388.23;105860;1253;71298;-78
2023/05/14 03:19:29;;;;;;;9.30;4.70;;;;;;;15.59;51.03;100389.95;106010;1260;74807;-75
2023/05/14 03:21:56;;;;;;;9.20;5.20;;;;;;;15.57;50.87;100386.80;105765;1257;60816;-77
2023/05/14 03:24:23;;;;;;;8.80;5.10;;;;;;;15.57;50.97;100387.86;106037;1254;59886;-78
2023/05/14 03:26:50;;;;;;;14.00;6.10;;;;;;;15.59;51.23;100388.91;105877;1259;75350;-77
2023/05/14 03:29:17;;;;;;;7.80;5.20;;;;;;;15.59;51.55;100393.16;105833;1254;72301;-79
2023/05/14 03:31:44;;;;;;;15.20;5.40;;;;;;;15.56;51.68;100390.68;105991;1254;74382;-78
2023/05/14 03:34:11;;;;;;;8.90;4.70;;;;;;;15.51;51.81;100392.11;105898;1254;60872;-79
2023/05/14 03:36:38;;;;;;;7.30;4.90;;;;;;;15.50;51.83;100387.48;105785;1253;60961;-78
2023/05/14 03:39:08;;;;;;;8.20;4.80;;;;;;;15.52;51.16;100383.63;105944;1259;73227;-78
2023/05/14 03:41:36;;;;;;;12.20;4.50;;;;;;;15.55;51.33;100387.02;105835;1253;72621;-77
2023/05/14 03:44:05;;;;;;;8.70;4.60;;;;;;;15.55;51.22;100386.15;105799;1260;73511;-76
2023/05/14 03:46:32;;;;;;;12.50;5.00;;;;;;;15.56;50.73;100386.08;105902;1254;60704;-78
2023/05/14 03:48:59;;;;;;;8.40;4.60;;;;;;;15.58;51.14;100386.71;105900;1259;59699;-77
2023/05/14 03:51:25;;;;;;;11.30;5.40;;;;;;;15.62;51.08;100389.08;105972;1258;72933;-80
2023/05/14 03:53:52;;;;;;;7.00;5.00;;;;;;;15.67;51.06;100388.62;106122;1259;69112;-82
2023/05/14 03:56:19;;;;;;;12.80;5.70;;;;;;;15.73;50.85;100389.50;105986;1260;74755;-80
2023/05/14 03:58:46;;;;;;;6.80;5.10;;;;;;;15.80;50.86;100391.91;106095;1253;60460;-78
2023/05/14 04:01:13;;;;;;;7.80;4.70;;;;;;;15.89;50.55;100394.41;107247;1253;59992;-78
2023/05/14 04:03:40;;;;;;;7.50;4.90;;;;;;;15.99;50.60;100397.45;106718;1254;77082;-79
2023/05/14 04:06:07;;;;;;;7.80;4.60;;;;;;;16.09;50.28;100393.05;106394;1253;70568;-78
2023/05/14 04:08:34;;;;;;;12.30;5.60;;;;;;;16.17;50.11;100394.73;106108;1253;71698;-80
2023/05/14 04:11:01;;;;;;;7.80;4.90;;;;;;;16.27;51.19;100395.52;106054;1253;62903;-80
2023/05/14 04:13:28;;;;;;;9.70;4.60;;;;;;;16.36;52.24;100390.83;106692;1253;62170;-80
2023/05/14 04:15:55;;;;;;;7.00;4.50;;;;;;;16.45;52.99;100385.81;107100;1260;74230;-79
2023/05/14 04:18:23;;;;;;;9.00;5.20;;;;;;;16.53;53.96;100378.66;106815;1258;70775;-76
2023/05/14 04:20:49;;;;;;;10.00;4.80;;;;;;;16.56;53.67;100377.13;106686;1255;72883;-77
2023/05/14 04:23:16;;;;;;;10.40;5.50;;;;;;;16.56;54.25;100381.20;106505;1258;60520;-81
2023/05/14 04:25:43;;;;;;;9.00;4.50;;;;;;;16.59;54.92;100380.83;107134;1253;60463;-79
2023/05/14 04:28:10;;;;;;;6.50;4.70;;;;;;;16.66;55.07;100380.31;107255;1253;74813;-79
2023/05/14 04:30:37;;;;;;;6.60;4.70;;;;;;;16.74;55.30;100385.70;107098;1257;71495;-77
2023/05/14 04:33:03;;;;;;;7.20;4.40;;;;;;;16.83;55.40;100384.40;105934;1257;72275;-77
2023/05/14 04:35:30;;;;;;;6.40;4.90;;;;;;;16.90;54.77;100383.94;105874;1253;62564;-77
2023/05/14 04:37:57;;;;;;;6.40;4.00;;;;;;;16.98;54.85;100381.52;105790;1254;60337;-77
2023/05/14 04:40:24;;;;;;;7.80;5.00;;;;;;;17.07;54.56;100380.85;105851;1254;74921;-75
2023/05/14 04:42:51;;;;;;;10.30;5.20;;;;;;;17.17;54.15;100385.68;105813;1254;72044;-77
2023/05/14 04:45:18;;;;;;;7.10;6.30;;;;;;;17.28;53.89;100383.90;105674;1260;73634;-77
2023/05/14 04:47:45;;;;;;;6.70;5.30;;;;;;;17.40;53.66;100382.81;105831;1253;60568;-77
2023/05/14 04:50:12;;;;;;;6.00;4.70;;;;;;;17.55;52.69;100381.95;105925;1253;62010;-78
2023/05/14 04:52:39;;;;;;;6.00;5.00;;;;;;;17.69;52.01;100388.64;105974;1254;76249;-76
2023/05/14 04:55:07;;;;;;;6.80;4.70;;;;;;;17.86;51.55;100389.98;105994;1253;72342;-78
2023/05/14 04:57:34;;;;;;;8.80;5.10;;;;;;;18.04;50.96;100391.02;105929;1259;73608;-78
2023/05/14 05:00:01;;;;;;;7.50;4.50;;;;;;;18.22;50.55;100390.21;106043;1256;60425;-78
2023/05/14 05:02:27;;;;;;;4.90;4.00;;;;;;;18.38;50.15;100391.20;106965;1254;62541;-76
2023/05/14 05:04:55;;;;;;;5.20;4.50;;;;;;;18.53;50.03;100391.19;107157;1253;74874;-78
2023/05/14 05:07:21;;;;;;;5.70;4.40;;;;;;;18.66;49.09;100386.40;106772;1258;71164;-81
2023/05/14 05:09:48;;;;;;;6.00;4.10;;;;;;;18.80;48.56;100385.11;105728;1255;73430;-80
2023/05/14 05:12:15;;;;;;;5.10;4.40;;;;;;;18.93;47.96;100386.36;105814;1258;61063;-75
2023/05/14 05:14:42;;;;;;;12.30;5.20;;;;;;;19.05;47.41;100387.77;105813;1253;61094;-76
2023/05/14 05:17:09;;;;;;;6.10;4.90;;;;;;;19.17;46.85;100385.95;105907;1253;76210;-76
2023/05/14 05:19:35;;;;;;;6.50;5.10;;;;;;;19.29;46.40;100383.34;105844;1258;71504;-78
2023/05/14 05:22:10;;;;;;;7.50;5.20;;;;;;;19.41;46.17;100387.19;105863;1254;72576;-76
2023/05/14 05:24:37;;;;;;;5.10;4.60;;;;;;;19.54;46.00;100385.83;105852;1257;60594;-78
2023/05/14 05:27:04;;;;;;;7.70;5.10;;;;;;;19.67;45.79;100385.71;105810;1253;60590;-76
2023/05/14 05:29:31;;;;;;;7.20;4.70;;;;;;;19.79;45.58;100386.52;105823;1253;74998;-75
2023/05/14 05:31:58;;;;;;;8.00;4.70;;;;;;;19.92;45.52;100384.83;105700;1253;72555;-78
2023/05/14 05:34:25;;;;;;;5.10;4.60;;;;;;;20.04;45.43;100386.22;105874;1253;74175;-73
2023/05/14 05:36:52;;;;;;;7.70;5.00;;;;;;;20.15;45.33;100385.17;106006;1259;60453;-76
2023/05/14 05:39:19;;;;;;;8.10;4.40;;;;;;;20.26;45.07;100384.70;106006;1253;61093;-75
2023/05/14 05:41:46;;;;;;;6.30;5.10;;;;;;;20.36;44.66;100384.52;105980;1253;74868;-75
2023/05/14 05:44:12;;;;;;;7.50;3.80;;;;;;;20.47;44.33;100383.95;106011;1258;70026;-76
2023/05/14 05:46:39;;;;;;;5.80;3.70;;;;;;;20.56;44.11;100388.16;105854;1260;71541;-75
2023/05/14 05:49:06;;;;;;;7.50;4.20;;;;;;;20.66;43.81;100385.70;105927;1256;62527;-74
2023/05/14 05:51:33;;;;;;;5.60;3.90;;;;;;;20.75;43.26;100387.10;105923;1253;60402;-72
2023/05/14 05:54:00;;;;;;;7.50;5.00;;;;;;;20.84;42.78;100384.88;105852;1255;75929;-72
2023/05/14 05:56:27;;;;;;;6.40;4.00;;;;;;;20.88;42.71;100390.45;105814;1253;72917;-72
2023/05/14 05:58:53;;;;;;;5.20;3.90;;;;;;;20.94;42.52;100383.17;105827;1253;74605;-75
2023/05/14 06:01:20;;;;;;;6.40;3.70;;;;;;;21.03;42.52;100384.26;105860;1253;60416;-73
2023/05/14 06:03:47;;;;;;;5.40;3.70;;;;;;;21.13;42.51;100385.77;105766;1259;60420;-73
2023/05/14 06:06:14;;;;;;;6.30;3.70;;;;;;;21.24;42.42;100386.31;105854;1253;74773;-73
2023/05/14 06:08:41;;;;;;;6.20;3.50;;;;;;;21.33;41.96;100386.97;105717;1253;71346;-72
2023/05/14 06:11:08;;;;;;;7.10;4.00;;;;;;;21.42;41.45;100387.63;105897;1256;74666;-72
2023/05/14 06:13:35;;;;;;;6.70;3.80;;;;;;;21.50;40.85;100388.41;105927;1253;60978;-72
2023/05/14 06:16:01;;;;;;;4.50;3.80;;;;;;;21.57;40.33;100389.79;105800;1258;62016;-72
2023/05/14 06:18:28;;;;;;;4.70;3.80;;;;;;;21.63;39.87;100388.89;105713;1253;75426;-72
2023/05/14 06:20:56;;;;;;;4.40;3.40;;;;;;;21.68;39.04;100390.29;105826;1254;71950;-71
2023/05/14 06:23:23;;;;;;;5.80;3.40;;;;;;;21.74;38.79;100393.87;105592;1254;74584;-73
2023/05/14 06:25:50;;;;;;;5.50;3.70;;;;;;;21.80;38.70;100392.09;105704;1253;61201;-74
2023/05/14 06:28:17;;;;;;;6.10;3.50;;;;;;;21.88;38.58;100393.80;105957;1253;62686;-71
2023/05/14 06:30:44;;;;;;;5.30;3.30;;;;;;;21.96;38.47;100391.20;105839;1253;72504;-72
2023/05/14 06:33:12;;;;;;;4.70;3.20;;;;;;;22.04;38.30;100393.09;105693;1260;71645;-72
2023/05/14 06:35:39;;;;;;;5.30;3.60;;;;;;;22.12;37.96;100392.54;105782;1255;74862;-75
2023/05/14 06:38:06;;;;;;;4.30;3.70;;;;;;;22.16;37.78;100390.40;105914;1256;61352;-74
2023/05/14 06:40:32;;;;;;;4.50;3.60;;;;;;;22.22;37.56;100389.29;105885;1253;62268;-71
2023/05/14 06:43:00;;;;;;;3.90;3.50;;;;;;;22.27;37.52;100384.41;105785;1253;75858;-75
2023/05/14 06:45:27;;;;;;;7.40;4.00;;;;;;;22.31;37.50;100388.36;105843;1254;72416;-74
2023/05/14 06:47:54;;;;;;;5.20;3.80;;;;;;;22.36;37.42;100385.98;105916;1254;73317;-73
2023/05/14 06:50:21;;;;;;;4.80;3.50;;;;;;;22.43;37.38;100382.02;106001;1258;61378;-75
2023/05/14 06:52:48;;;;;;;5.50;3.70;;;;;;;22.48;37.50;100385.48;105856;1253;60479;-74
2023/05/14 06:55:15;;;;;;;9.40;3.80;;;;;;;22.52;37.38;100382.55;105827;1253;74924;-74
2023/05/14 06:57:42;;;;;;;4.50;3.90;;;;;;;22.56;37.30;100383.61;105971;1254;72408;-74
2023/05/14 07:00:09;;;;;;;6.90;3.90;;;;;;;22.61;37.30;100380.00;105974;1253;74814;-76
2023/05/14 07:02:36;;;;;;;6.10;4.40;;;;;;;22.68;37.60;100383.70;105832;1258;60456;-74
2023/05/14 07:05:04;;;;;;;5.00;4.40;;;;;;;22.74;37.54;100379.41;105718;1253;62220;-75
2023/05/14 07:07:30;;;;;;;7.40;4.00;;;;;;;22.82;37.39;100382.75;105814;1255;75162;-72
2023/05/14 07:09:57;;;;;;;7.80;4.70;;;;;;;22.90;37.31;100383.86;105772;1253;72176;-75
2023/05/14 07:12:24;;;;;;;8.10;4.20;;;;;;;22.99;37.13;100382.14;105877;1257;72529;-75
2023/05/14 07:14:51;;;;;;;5.20;4.30;;;;;;;23.09;37.07;100379.90;105896;1253;61324;-75
2023/05/14 07:17:18;;;;;;;6.10;3.70;;;;;;;23.20;36.84;100373.01;106024;1254;62482;-74
2023/05/14 07:19:46;;;;;;;6.60;4.50;;;;;;;23.30;36.66;100375.35;105812;1258;74748;-77
2023/05/14 07:22:12;;;;;;;6.80;4.60;;;;;;;23.43;36.60;100372.04;105937;1253;71565;-76
2023/05/14 07:24:39;;;;;;;5.90;4.20;;;;;;;23.51;36.60;100371.48;105845;1255;74086;-77
2023/05/14 07:27:07;;;;;;;4.60;4.00;;;;;;;23.63;36.48;100365.64;105855;1252;62120;-74
2023/05/14 07:29:34;;;;;;;5.60;4.30;;;;;;;23.74;36.23;100367.39;105993;1253;61138;-75
2023/05/14 07:32:01;;;;;;;6.60;4.60;;;;;;;23.83;35.89;100363.98;105940;1260;74622;-75
2023/05/14 07:34:27;;;;;;;6.70;4.70;;;;;;;23.90;35.61;100365.20;105962;1258;68964;-78
2023/05/14 07:36:54;;;;;;;6.90;4.30;;;;;;;23.96;35.77;100359.11;105860;1254;75686;-76
2023/05/14 07:39:21;;;;;;;5.50;4.40;;;;;;;24.02;35.44;100358.42;106024;1259;60972;-74
2023/05/14 07:41:49;;;;;;;5.20;4.00;;;;;;;24.08;35.38;100359.02;105950;1253;60709;-74
2023/05/14 07:44:16;;;;;;;4.70;4.30;;;;;;;24.13;35.27;100358.56;105962;1253;75692;-75
2023/05/14 07:46:44;;;;;;;6.10;3.90;;;;;;;24.18;34.92;100360.30;105840;1253;72444;-74
2023/05/14 07:49:10;;;;;;;7.00;4.50;;;;;;;24.20;34.91;100354.24;105980;1258;71174;-74
2023/05/14 07:51:37;;;;;;;5.00;3.90;;;;;;;24.22;35.08;100351.52;106241;1253;60851;-72
2023/05/14 07:54:04;;;;;;;6.70;4.00;;;;;;;24.26;35.17;100352.68;106108;1258;61274;-73
2023/05/14 07:56:31;;;;;;;5.50;3.90;;;;;;;24.29;35.01;100345.36;105871;1253;75464;-75
2023/05/14 07:58:58;;;;;;;6.40;3.90;;;;;;;24.31;34.70;100351.32;105892;1260;71821;-74
2023/05/14 08:01:25;;;;;;;7.80;4.10;;;;;;;24.33;34.62;100350.42;106008;1256;75108;-72
2023/05/14 08:03:52;;;;;;;5.80;3.70;;;;;;;24.35;34.76;100349.24;105956;1258;61242;-75
2023/05/14 08:06:20;;;;;;;4.80;4.10;;;;;;;24.34;34.67;100347.77;105893;1253;61188;-75
2023/05/14 08:08:47;;;;;;;5.30;3.80;;;;;;;24.34;34.63;100345.39;105960;1258;73581;-72
2023/05/14 08:11:14;;;;;;;6.50;5.00;;;;;;;24.39;34.58;100344.75;105955;1253;72389;-73
2023/05/14 08:13:41;;;;;;;6.70;3.70;;;;;;;24.46;34.63;100336.64;105957;1254;74977;-73
2023/05/14 08:16:08;;;;;;;5.30;3.60;;;;;;;24.56;34.50;100340.86;106044;1258;61145;-72
2023/05/14 08:18:35;;;;;;;6.50;3.40;;;;;;;24.66;34.35;100341.00;105956;1257;60297;-72
2023/05/14 08:21:02;;;;;;;3.90;3.60;;;;;;;24.75;33.65;100342.39;105910;1258;75895;-75
2023/05/14 08:23:29;;;;;;;4.10;3.50;;;;;;;24.83;33.33;100337.52;105848;1254;72249;-74
2023/05/14 08:25:56;;;;;;;3.30;3.00;;;;;;;24.93;33.17;100329.86;105961;1254;74657;-74
2023/05/14 08:28:23;;;;;;;5.80;3.80;;;;;;;25.06;33.05;100330.27;105892;1254;60710;-74
2023/05/14 08:30:50;;;;;;;6.80;3.70;;;;;;;25.19;32.79;100326.16;105912;1253;61927;-74
2023/05/14 08:33:17;;;;;;;6.50;3.60;;;;;;;25.36;32.36;100325.31;105949;1258;76237;-75
2023/05/14 08:35:44;;;;;;;5.90;3.60;;;;;;;25.48;31.84;100319.38;105911;1253;69948;-73
2023/05/14 08:38:10;;;;;;;5.40;3.30;;;;;;;25.57;31.90;100320.84;105850;1253;74972;-75
2023/05/14 08:40:37;;;;;;;6.40;2.70;;;;;;;25.68;31.14;100323.16;105891;1256;60970;-73
2023/05/14 08:43:04;;;;;;;9.20;3.50;;;;;;;25.77;29.87;100327.94;105935;1253;62192;-74
2023/05/14 08:45:32;;;;;;;7.00;3.10;;;;;;;25.82;28.67;100322.19;105951;1253;74799;-75
2023/05/14 08:48:00;;;;;;;5.30;2.90;;;;;;;25.85;29.08;100318.55;106107;1253;72356;-72
2023/05/14 08:50:28;;;;;;;4.60;3.20;;;;;;;25.95;29.56;100313.46;105919;1256;74426;-76
2023/05/14 08:52:56;;;;;;;5.40;2.80;;;;;;;26.15;29.60;100317.55;105814;1258;61725;-73
2023/05/14 08:55:24;;;;;;;3.50;2.60;;;;;;;26.38;28.43;100314.31;106386;1258;62472;-79
2023/05/14 08:57:52;;;;;;;6.00;2.40;;;;;;;26.61;27.82;100310.60;107100;1260;74164;-79
2023/05/14 09:00:19;;;;;;;4.70;3.10;;;;;;;26.82;27.13;100308.58;106875;1253;70580;-79
2023/05/14 09:02:46;;;;;;;4.30;2.60;;;;;;;26.97;27.05;100304.10;106705;1261;73259;-79
2023/05/14 09:05:13;;;;;;;4.30;2.70;;;;;;;27.13;27.34;100305.34;106544;1253;61033;-81
2023/05/14 09:07:40;;;;;;;5.30;2.80;;;;;;;27.37;27.50;100302.64;106136;1253;61567;-77
2023/05/14 09:10:08;;;;;;;6.50;2.60;;;;;;;27.64;27.30;100301.82;105987;1258;75521;-79
2023/05/14 09:12:35;;;;;;;5.10;2.60;;;;;;;27.93;27.39;100298.20;106407;1253;72163;-77
2023/05/14 09:15:03;;;;;;;6.80;2.80;;;;;;;28.25;26.91;100294.32;106752;1253;73861;-78
2023/05/14 09:17:31;;;;;;;4.70;2.70;;;;;;;28.62;26.51;100290.23;107451;1255;61408;-77
2023/05/14 09:19:58;;;;;;;7.40;3.00;;;;;;;29.07;26.02;100287.05;106644;1259;61566;-80
2023/05/14 09:22:25;;;;;;;6.60;2.50;;;;;;;29.63;25.57;100289.54;106090;1253;75985;-78
2023/05/14 09:25:03;;;;;;;4.20;2.70;;;;;;;30.18;24.86;100288.04;105921;1260;71364;-78
2023/05/14 09:27:30;;;;;;;3.60;2.70;;;;;;;30.76;24.69;100288.02;106180;1257;72942;-81
2023/05/14 09:30:10;;;;;;;6.30;2.50;;;;;;;31.27;24.34;100284.05;105846;1260;60732;-78
2023/05/14 09:32:45;;;;;;;4.20;2.80;;;;;;;31.77;23.96;100278.33;105982;1253;61390;-79
2023/05/14 09:35:20;;;;;;;3.40;2.90;;;;;;;32.12;23.75;100272.52;106034;1255;74921;-79
2023/05/14 09:37:49;;;;;;;8.00;2.90;;;;;;;32.34;23.85;100270.85;106178;1254;71836;-78
2023/05/14 09:40:17;;;;;;;3.50;3.00;;;;;;;32.64;23.98;100269.90;105811;1258;75102;-78
2023/05/14 09:42:44;;;;;;;3.00;2.70;;;;;;;33.14;23.67;100262.52;105850;1255;61421;-79
2023/05/14 09:45:11;;;;;;;4.20;3.30;;;;;;;33.66;23.28;100260.50;105946;1258;62450;-79
2023/05/14 09:47:38;;;;;;;4.90;2.80;;;;;;;34.10;22.84;100262.40;106112;1253;75913;-77
2023/05/14 09:50:07;;;;;;;8.30;3.30;;;;;;;34.40;22.50;100264.98;108505;1253;70728;-79
2023/05/14 09:52:34;;;;;;;5.30;3.50;;;;;;;34.72;22.26;100264.29;108647;1253;75087;-77
2023/05/14 09:55:01;;;;;;;4.90;3.50;;;;;;;34.94;21.84;100259.48;108824;1253;58485;-80
2023/05/14 09:57:28;;;;;;;5.00;3.60;;;;;;;35.13;21.79;100254.28;109004;1253;61045;-79
2023/05/14 09:59:55;;;;;;;4.00;3.20;;;;;;;35.42;21.89;100251.69;109083;1254;65919;-78
2023/05/14 10:02:24;;;;;;;6.20;3.40;;;;;;;35.90;21.57;100248.16;109197;1253;62315;-78
2023/05/14 10:04:56;;;;;;;5.00;3.10;;;;;;;36.30;21.22;100249.84;109131;1253;65050;-79
2023/05/14 10:07:28;;;;;;;4.30;3.20;;;;;;;36.72;20.85;100251.79;108998;1254;58215;-80
2023/05/14 10:10:00;;;;;;;;;;;;;;;37.08;20.54;100250.49;108624;1254;60470;-77
2023/05/14 10:12:29;;;;;;;4.70;3.10;;;;;;;37.29;20.23;100250.98;108988;1253;66207;-77
2023/05/14 10:14:55;;;;;;;3.50;3.20;;;;;;;37.42;20.04;100250.34;108836;1254;60433;-76
2023/05/14 10:17:22;;;;;;;3.90;3.60;;;;;;;37.43;20.08;100251.40;108678;1253;64966;-78
2023/05/14 10:19:53;;;;;;;4.40;3.70;;;;;;;37.45;20.13;100246.11;108889;1255;58193;-77
2023/05/14 10:22:25;;;;;;;4.10;3.40;;;;;;;37.63;20.15;100237.08;109143;1253;57814;-79
2023/05/14 10:24:51;;;;;;;5.80;3.60;;;;;;;37.81;19.85;100236.63;109024;1258;63803;-80
2023/05/14 10:27:20;;;;;;;7.10;3.70;;;;;;;37.79;19.87;100235.30;109086;1253;62798;-82
2023/05/14 10:29:52;;;;;;;3.80;3.50;;;;;;;37.79;19.89;100231.58;109194;1256;62970;-77
2023/05/14 10:32:26;;;;;;;4.80;3.70;;;;;;;37.88;20.03;100226.99;109189;1253;60515;-78
2023/05/14 10:34:53;;;;;;;3.70;3.30;;;;;;;37.97;19.83;100229.61;109152;1253;59058;-78
2023/05/14 10:37:26;;;;;;;4.90;4.00;;;;;;;37.86;19.70;100229.84;109190;1253;65944;-77
2023/05/14 10:39:57;;;;;;;3.30;3.00;;;;;;;37.67;19.92;100228.34;108895;1254;62622;-79
2023/05/14 10:42:30;;;;;;;5.10;3.80;;;;;;;37.51;20.08;100226.16;109003;1253;64910;-78
2023/05/14 10:45:05;;;;;;;3.50;3.20;;;;;;;37.55;19.75;100224.80;109219;1253;57913;-79
2023/05/14 10:47:32;;;;;;;5.70;3.40;;;;;;;37.23;19.46;100225.80;109166;1253;57954;-78
2023/05/14 10:50:01;;;;;;;4.00;3.50;;;;;;;36.52;19.77;100226.67;109081;1253;66243;-77
2023/05/14 10:52:28;;;;;;;3.90;3.60;;;;;;;35.65;20.22;100226.43;109068;1253;62737;-79
2023/05/14 10:54:59;;;;;;;4.10;3.50;;;;;;;34.95;20.68;100231.63;109295;1254;64690;-76
2023/05/14 10:57:30;;;;;;;3.80;3.40;;;;;;;34.30;20.87;100228.05;109330;1254;60956;-79
2023/05/14 10:59:59;;;;;;;3.70;3.40;;;;;;;33.64;21.17;100229.04;109247;1254;58718;-78
2023/05/14 11:02:33;;;;;;;3.70;3.30;;;;;;;33.03;21.59;100222.79;109105;1254;74609;-77
2023/05/14 11:05:09;;;;;;;4.40;3.50;;;;;;;32.54;21.87;100222.29;109288;1253;71173;-78
2023/05/14 11:07:37;;;;;;;4.80;3.50;;;;;;;32.17;22.22;100223.37;109226;1253;73870;-76
2023/05/14 11:10:11;;;;;;;5.30;3.30;;;;;;;31.84;22.42;100219.75;109317;1253;60947;-78
2023/05/14 11:12:40;;;;;;;4.00;3.50;;;;;;;31.55;22.59;100220.85;107635;1253;61265;-76
2023/05/14 11:15:08;;;;;;;3.70;3.40;;;;;;;31.22;22.75;100217.94;105955;1258;75905;-78
2023/05/14 11:17:35;;;;;;;4.80;3.40;;;;;;;30.92;22.76;100216.59;105790;1253;70738;-77
2023/05/14 11:20:04;;;;;;;4.40;3.40;;;;;;;30.76;22.82;100210.88;105777;1256;73574;-78